createdAt,value
2018-08-17T00:00:14.139Z,10.38
2018-08-17T00:15:14.658Z,9.67
2018-08-17T00:24:14.614Z,11.75
2018-08-17T00:33:14.446Z,9.67
2018-08-17T00:45:14.568Z,8.98
2018-08-17T01:12:14.227Z,10.50
2018-08-17T01:48:14.022Z,8.95
2018-08-17T02:09:14.117Z,8.63
2018-08-17T02:18:14.767Z,9.33
2018-08-17T02:33:14.549Z,9.00
2018-08-17T02:39:14.523Z,9.05
2018-08-17T03:06:14.254Z,9.23
2018-08-17T03:30:14.065Z,9.25
2018-08-17T03:42:14.110Z,8.63
2018-08-17T03:57:14.039Z,8.23
2018-08-17T04:21:14.172Z,9.08
2018-08-17T04:30:14.124Z,10.10
2018-08-17T04:48:14.194Z,11.38
2018-08-17T04:59:49.712Z,12.58
2018-08-17T05:02:18.914Z,10.40
2018-08-17T05:05:14.593Z,12.70
2018-08-17T05:14:14.322Z,12.90
2018-08-17T05:26:14.160Z,13.70
2018-08-17T05:44:14.239Z,14.33
2018-08-17T05:53:14.105Z,15.32
2018-08-17T06:05:14.489Z,13.43
2018-08-17T06:35:15.506Z,17.00
2018-08-17T06:38:14.148Z,15.37
2018-08-17T06:49:44.544Z,17.05
2018-08-17T06:52:17.325Z,16.60
2018-08-17T06:55:15.321Z,19.48
2018-08-17T07:10:14.677Z,18.95
2018-08-17T07:22:14.394Z,16.20
2018-08-17T07:28:15.099Z,17.23
2018-08-17T07:34:14.676Z,17.15
2018-08-17T07:40:14.803Z,13.80
2018-08-17T07:46:14.779Z,15.90
2018-08-17T07:55:16.146Z,15.50
2018-08-17T08:07:14.610Z,15.50
2018-08-17T08:12:34.873Z,12.45
2018-08-17T08:15:16.672Z,16.10
2018-08-17T08:17:45.930Z,12.23
2018-08-17T08:21:33.335Z,14.90
2018-08-17T08:24:17.074Z,15.60
2018-08-17T08:27:15.001Z,12.88
2018-08-17T08:33:14.253Z,12.60
2018-08-17T08:39:14.607Z,12.05
2018-08-17T08:45:14.960Z,12.25
2018-08-17T11:24:14.782Z,8.65
2018-08-17T11:36:15.068Z,7.13
2018-08-17T11:42:14.691Z,7.62
2018-08-17T11:44:44.371Z,7.87
2018-08-17T11:47:19.442Z,7.67
2018-08-17T11:50:14.605Z,10.58
2018-08-17T11:59:14.502Z,8.58
2018-08-17T12:17:15.094Z,7.60
2018-08-17T12:32:14.599Z,8.03
2018-08-17T12:47:15.063Z,7.60
2018-08-17T12:56:14.860Z,7.00
2018-08-17T13:05:14.509Z,8.80
2018-08-17T13:10:43.786Z,7.90
2018-08-17T13:13:18.813Z,8.00
2018-08-17T13:16:19.422Z,6.62
2018-08-17T13:18:48.633Z,7.77
2018-08-17T13:21:17.802Z,6.95
2018-08-17T13:23:46.993Z,7.62
2018-08-17T13:26:16.156Z,8.00
2018-08-17T13:28:45.305Z,9.40
2018-08-17T13:31:14.473Z,8.33
2018-08-17T13:49:15.019Z,7.12
2018-08-17T13:57:58.153Z,6.37
2018-08-17T14:03:28.021Z,6.80
2018-08-17T14:06:16.033Z,6.97
2018-08-17T14:08:45.230Z,6.90
2018-08-17T14:11:14.463Z,7.57
2018-08-17T14:13:43.652Z,10.20
2018-08-17T14:16:18.893Z,6.63
2018-08-17T14:19:14.857Z,6.73
2018-08-17T14:30:43.642Z,6.70
2018-08-17T14:33:19.005Z,9.83
2018-08-17T14:36:15.022Z,6.40
2018-08-17T14:42:14.918Z,9.40
2018-08-17T14:57:35.550Z,7.43
2018-08-17T15:00:17.438Z,5.70
2018-08-17T15:03:15.934Z,8.63
2018-08-17T15:05:45.100Z,7.43
2018-08-17T15:08:14.436Z,8.17
2018-08-17T15:10:43.624Z,8.83
2018-08-17T15:13:12.929Z,6.37
2018-08-17T15:16:16.338Z,7.70
2018-08-17T15:22:15.039Z,6.40
2018-08-17T15:27:58.043Z,5.43
2018-08-17T15:33:28.359Z,6.37
2018-08-17T15:36:16.507Z,9.00
2018-08-17T15:39:14.521Z,6.90
2018-08-17T15:41:45.917Z,8.83
2018-08-17T15:47:16.111Z,6.60
2018-08-17T15:52:45.361Z,10.00
2018-08-17T15:55:14.757Z,7.27
2018-08-17T15:57:44.085Z,12.40
2018-08-17T16:00:18.732Z,7.67
2018-08-17T16:02:47.935Z,7.70
2018-08-17T16:05:17.241Z,6.90
2018-08-17T16:07:46.440Z,7.00
2018-08-17T16:10:16.468Z,7.07
2018-08-17T16:12:46.190Z,6.00
2018-08-17T16:15:15.490Z,5.93
2018-08-17T16:17:44.690Z,6.27
2018-08-17T16:20:14.233Z,7.13
2018-08-17T16:22:44.105Z,9.90
2018-08-17T16:25:19.001Z,7.50
2018-08-17T16:27:48.209Z,5.67
2018-08-17T16:30:17.383Z,5.90
2018-08-17T16:32:46.619Z,6.07
2018-08-17T16:35:17.645Z,6.17
2018-08-17T16:37:48.105Z,6.60
2018-08-17T16:40:21.836Z,6.00
2018-08-17T16:45:54.162Z,9.10
2018-08-17T16:48:23.343Z,7.73
2018-08-17T16:50:52.557Z,8.07
2018-08-17T16:53:21.773Z,5.83
2018-08-17T16:55:50.971Z,6.07
2018-08-17T16:58:20.226Z,6.17
2018-08-17T17:00:49.405Z,8.47
2018-08-17T17:03:18.664Z,7.33
2018-08-17T17:05:48.563Z,8.43
2018-08-17T17:08:17.764Z,9.30
2018-08-17T17:10:46.913Z,9.47
2018-08-17T17:13:17.926Z,6.67
2018-08-17T17:15:47.070Z,6.53
2018-08-17T17:18:16.246Z,8.63
2018-08-17T17:20:45.479Z,9.53
2018-08-17T17:23:14.708Z,5.97
2018-08-17T17:25:43.918Z,8.30
2018-08-17T17:28:13.077Z,6.50
2018-08-17T17:30:47.575Z,6.83
2018-08-17T17:33:16.762Z,7.53
2018-08-17T17:35:45.965Z,8.20
2018-08-17T17:38:15.185Z,8.07
2018-08-17T17:40:44.365Z,7.13
2018-08-17T17:43:19.130Z,7.27
2018-08-17T17:45:48.373Z,9.73
2018-08-17T17:48:17.570Z,7.10
2018-08-17T17:50:47.564Z,12.53
2018-08-17T17:53:16.865Z,6.77
2018-08-17T17:55:48.970Z,7.83
2018-08-17T17:58:19.196Z,7.17
2018-08-17T18:00:58.866Z,8.13
2018-08-17T18:03:29.321Z,6.20
2018-08-17T18:06:05.029Z,6.50
2018-08-17T18:08:34.268Z,10.50
2018-08-17T18:11:03.433Z,7.10
2018-08-17T18:13:32.637Z,7.10
2018-08-17T18:16:01.838Z,6.97
2018-08-17T18:18:31.069Z,6.60
2018-08-17T18:21:00.279Z,10.77
2018-08-17T18:23:29.437Z,9.13
2018-08-17T18:25:58.603Z,7.50
2018-08-17T18:28:27.804Z,9.97
2018-08-17T18:31:15.969Z,7.50
2018-08-17T18:33:45.224Z,9.30
2018-08-17T18:36:14.407Z,8.83
2018-08-17T18:38:43.604Z,11.07
2018-08-17T18:41:12.791Z,8.13
2018-08-17T18:43:41.961Z,7.83
2018-08-17T18:46:11.166Z,8.50
2018-08-17T18:48:40.358Z,8.60
2018-08-17T18:51:09.750Z,7.23
2018-08-17T18:53:39.069Z,6.70
2018-08-17T18:56:08.289Z,7.43
2018-08-17T18:58:37.533Z,17.13
2018-08-17T19:01:16.855Z,53.63
2018-08-17T19:03:46.156Z,77.37
2018-08-17T19:09:19.160Z,86.47
2018-08-17T19:11:48.411Z,72.53
2018-08-17T19:14:17.577Z,65.33
2018-08-17T19:16:46.807Z,50.57
2018-08-17T19:19:27.198Z,52.63
2018-08-17T19:21:56.371Z,42.67
2018-08-17T19:24:25.585Z,52.20
2018-08-17T19:26:55.486Z,40.93
2018-08-17T19:29:24.667Z,45.13
2018-08-17T19:31:59.102Z,33.10
2018-08-17T19:37:28.189Z,33.67
2018-08-17T19:39:57.383Z,37.10
2018-08-17T19:42:26.554Z,37.87
2018-08-17T19:44:55.785Z,25.23
2018-08-17T19:47:25.077Z,22.90
2018-08-17T19:49:54.277Z,27.43
2018-08-17T19:52:23.564Z,27.87
2018-08-17T19:54:52.745Z,26.03
2018-08-17T19:57:21.970Z,21.90
2018-08-17T19:59:51.164Z,21.43
2018-08-17T20:02:20.473Z,17.17
2018-08-17T20:04:49.649Z,18.07
2018-08-17T20:07:18.834Z,20.70
2018-08-17T20:10:15.026Z,15.87
2018-08-17T20:12:44.397Z,19.80
2018-08-17T20:15:13.736Z,15.83
2018-08-17T20:18:19.623Z,16.30
2018-08-17T20:20:48.824Z,15.83
2018-08-17T20:23:18.009Z,21.07
2018-08-17T20:25:47.407Z,16.20
2018-08-17T20:28:16.531Z,13.57
2018-08-17T20:30:45.714Z,13.87
2018-08-17T20:33:20.395Z,13.93
2018-08-17T20:35:50.198Z,12.00
2018-08-17T20:38:19.385Z,15.03
2018-08-17T20:40:48.699Z,11.50
2018-08-17T20:43:17.929Z,11.57
2018-08-17T20:45:47.139Z,9.03
2018-08-17T20:48:17.037Z,11.83
2018-08-17T20:50:46.239Z,9.57
2018-08-17T20:53:16.237Z,12.83
2018-08-17T20:55:46.414Z,11.03
2018-08-17T20:58:18.889Z,9.63
2018-08-17T21:00:48.060Z,12.43
2018-08-17T21:03:17.309Z,12.50
2018-08-17T21:05:46.522Z,10.10
2018-08-17T21:08:15.702Z,8.77
2018-08-17T21:10:44.886Z,9.70
2018-08-17T21:13:19.679Z,9.80
2018-08-17T21:15:48.823Z,8.63
2018-08-17T21:18:18.044Z,11.27
2018-08-17T22:01:51.644Z,12.68
2018-08-17T22:04:20.816Z,11.07
2018-08-17T22:06:50.026Z,11.43
2018-08-17T22:09:36.550Z,10.50
2018-08-17T22:12:06.529Z,9.50
2018-08-17T22:14:35.953Z,9.75
2018-08-17T22:17:05.500Z,10.30
2018-08-17T22:19:39.126Z,11.75
2018-08-17T22:22:10.785Z,11.80
2018-08-17T22:24:45.282Z,11.05
2018-08-17T22:27:17.042Z,9.63
2018-08-17T22:30:15.038Z,11.33
2018-08-17T22:32:44.710Z,12.45
2018-08-17T22:35:14.540Z,10.70
2018-08-17T22:37:43.660Z,12.10
2018-08-17T22:40:12.882Z,11.18
2018-08-17T22:42:42.117Z,10.55
2018-08-17T22:45:11.301Z,10.08
2018-08-17T22:47:40.485Z,10.25
2018-08-17T22:50:10.054Z,15.03
2018-08-17T22:52:39.277Z,10.20
2018-08-17T22:55:09.942Z,11.33
2018-08-17T22:57:39.176Z,11.40
2018-08-17T23:00:21.441Z,11.57
2018-08-17T23:02:51.871Z,10.37
2018-08-17T23:05:23.514Z,10.43
2018-08-17T23:07:52.706Z,10.35
2018-08-17T23:10:22.994Z,11.60
2018-08-17T23:13:17.230Z,10.38
2018-08-17T23:15:46.420Z,11.53
2018-08-17T23:18:15.745Z,10.15
2018-08-17T23:20:44.952Z,12.00
2018-08-17T23:23:14.137Z,11.95
2018-08-17T23:25:43.340Z,12.07
2018-08-17T23:28:12.568Z,11.30
2018-08-17T23:30:41.782Z,10.95
2018-08-17T23:33:11.209Z,10.05
2018-08-17T23:35:40.414Z,11.00
2018-08-17T23:38:09.622Z,10.25
2018-08-17T23:40:38.809Z,10.40
2018-08-17T23:43:17.656Z,11.68
2018-08-17T23:45:46.873Z,11.40
2018-08-17T23:48:16.057Z,12.30
2018-08-17T23:50:45.222Z,11.00
2018-08-17T23:53:19.951Z,11.08
2018-08-17T23:55:49.130Z,11.60
2018-08-17T23:58:18.298Z,10.72
